Time;durP1;ratioP1;P1;durP2;ratioP2;P2;SDS_P1;SDS_P2;PMS_P1;PMS_P2;Temp;Humidity;BMP_temperature;BMP_pressure;BME280_temperature;BME280_humidity;BME280_pressure;Samples;Min_cycle;Max_cycle;Signal;HPM_P1;HPM_P2
2022/05/21 00:00:45;;;;;;;34.35;10.82;;;23.90;99.90;;;;;;5053176;28;20504;-57
2022/05/21 00:03:12;;;;;;;33.95;9.13;;;24.00;99.90;;;;;;5043436;28;20033;-54
2022/05/21 00:05:39;;;;;;;28.20;9.50;;;24.00;99.90;;;;;;5032336;28;20398;-56
2022/05/21 00:08:08;;;;;;;26.63;8.80;;;23.90;99.90;;;;;;5032772;28;20037;-56
2022/05/21 00:10:36;;;;;;;38.35;9.88;;;23.90;99.90;;;;;;5032555;28;20018;-56
2022/05/21 00:13:02;;;;;;;24.35;8.75;;;23.80;99.90;;;;;;5032893;28;20068;-57
2022/05/21 00:15:30;;;;;;;29.17;7.93;;;23.70;99.90;;;;;;5032853;28;20034;-53
2022/05/21 00:17:56;;;;;;;26.55;8.00;;;23.60;99.90;;;;;;5032615;28;20028;-54
2022/05/21 00:23:14;;;;;;;26.83;8.15;;;23.50;99.90;;;;;;5039903;28;20044;-56
2022/05/21 00:25:42;;;;;;;20.35;7.85;;;23.60;99.90;;;;;;5039972;28;20057;-53
2022/05/21 00:28:07;;;;;;;25.63;7.93;;;23.50;99.90;;;;;;5046562;28;20087;-51
2022/05/21 00:30:33;;;;;;;35.47;9.88;;;23.50;99.90;;;;;;5037622;28;20470;-52
2022/05/21 00:33:00;;;;;;;25.58;7.82;;;23.50;99.90;;;;;;5052398;28;20090;-49
2022/05/21 00:35:26;;;;;;;28.33;8.25;;;23.50;99.90;;;;;;5045628;28;20021;-49
2022/05/21 00:37:52;;;;;;;23.08;7.32;;;23.50;99.90;;;;;;5045427;28;20033;-49
2022/05/21 00:40:17;;;;;;;23.05;7.95;;;23.50;99.90;;;;;;5046518;28;20525;-51
2022/05/21 00:42:44;;;;;;;32.00;8.27;;;23.50;99.90;;;;;;5052279;28;20051;-53
2022/05/21 00:45:12;;;;;;;24.35;8.65;;;23.50;99.90;;;;;;5051864;28;20125;-52
2022/05/21 00:47:37;;;;;;;37.47;8.60;;;23.40;99.90;;;;;;5051843;28;20127;-51
2022/05/21 00:50:05;;;;;;;34.58;8.88;;;23.40;99.90;;;;;;5046685;28;20064;-52
2022/05/21 00:52:34;;;;;;;27.98;7.00;;;23.30;99.90;;;;;;5048238;28;20029;-54
2022/05/21 00:55:10;;;;;;;32.80;8.80;;;23.30;99.90;;;;;;5046678;28;20025;-51
2022/05/21 00:57:45;;;;;;;27.75;9.07;;;23.20;99.90;;;;;;5051891;28;20083;-51
2022/05/21 01:00:22;;;;;;;35.13;9.18;;;23.20;99.90;;;;;;5052037;28;20218;-52
2022/05/21 01:02:56;;;;;;;31.33;9.43;;;23.10;99.90;;;;;;5037827;28;20088;-54
2022/05/21 01:05:25;;;;;;;36.00;8.80;;;23.10;99.90;;;;;;5031804;28;20393;-56
2022/05/21 01:07:55;;;;;;;29.27;8.75;;;23.10;99.90;;;;;;5031659;28;20095;-57
2022/05/21 01:10:24;;;;;;;34.53;8.75;;;23.00;99.90;;;;;;5031256;28;20030;-55
2022/05/21 01:12:53;;;;;;;29.85;7.80;;;23.00;99.90;;;;;;5038822;28;20335;-54
2022/05/21 01:15:27;;;;;;;35.45;9.02;;;23.00;99.90;;;;;;5051424;28;20025;-50
2022/05/21 01:17:53;;;;;;;35.35;9.15;;;23.00;99.90;;;;;;5050498;28;20477;-51
2022/05/21 01:20:22;;;;;;;35.65;11.25;;;23.10;99.90;;;;;;5048472;28;20079;-55
2022/05/21 01:22:53;;;;;;;37.50;8.63;;;23.00;99.90;;;;;;5031856;28;20473;-55
2022/05/21 01:25:23;;;;;;;36.25;9.13;;;23.10;99.90;;;;;;5048640;28;20048;-57
2022/05/21 01:27:50;;;;;;;32.17;8.63;;;23.00;99.90;;;;;;5051454;28;20226;-54
2022/05/21 01:30:23;;;;;;;23.83;8.95;;;23.00;99.90;;;;;;5051361;28;20063;-52
2022/05/21 01:32:50;;;;;;;34.20;9.70;;;23.00;99.90;;;;;;5049842;28;20025;-54
2022/05/21 01:35:18;;;;;;;30.45;8.25;;;23.00;99.90;;;;;;5051188;28;20032;-53
2022/05/21 01:37:48;;;;;;;31.73;8.63;;;23.00;99.90;;;;;;5051127;28;20120;-54
2022/05/21 01:40:17;;;;;;;37.65;9.57;;;23.00;99.90;;;;;;5050989;28;20136;-52
2022/05/21 01:42:43;;;;;;;31.67;7.75;;;23.10;99.90;;;;;;5051136;28;20028;-53
2022/05/21 01:45:10;;;;;;;31.48;8.73;;;23.00;99.90;;;;;;5050936;28;20035;-52
2022/05/21 01:47:41;;;;;;;31.10;9.00;;;23.00;99.90;;;;;;5066395;28;20017;-52
2022/05/21 01:50:07;;;;;;;28.42;7.32;;;23.00;99.90;;;;;;5048448;28;20720;-51
2022/05/21 01:52:33;;;;;;;20.88;7.60;;;23.10;99.90;;;;;;5040355;28;20021;-53
2022/05/21 01:54:59;;;;;;;23.88;9.38;;;23.20;99.90;;;;;;5049069;28;20063;-52
2022/05/21 01:57:25;;;;;;;24.33;8.43;;;23.30;99.90;;;;;;5049256;28;20465;-52
2022/05/21 01:59:51;;;;;;;25.58;8.43;;;23.40;99.90;;;;;;5049618;28;20135;-52
2022/05/21 02:02:17;;;;;;;33.63;9.02;;;23.50;99.90;;;;;;5049198;28;20025;-53
2022/05/21 02:04:43;;;;;;;31.98;8.60;;;23.50;99.90;;;;;;5049166;28;20041;-53
2022/05/21 02:07:09;;;;;;;28.23;8.10;;;23.60;99.90;;;;;;5049596;28;20025;-51
2022/05/21 02:09:35;;;;;;;27.45;8.00;;;23.60;99.90;;;;;;5048321;28;20025;-53
2022/05/21 02:12:01;;;;;;;28.48;7.90;;;23.60;99.90;;;;;;5051236;28;20358;-53
2022/05/21 02:14:27;;;;;;;26.50;8.50;;;23.70;99.90;;;;;;5049771;28;20052;-53
2022/05/21 02:16:53;;;;;;;29.35;8.02;;;23.70;99.90;;;;;;5050754;28;20025;-53
2022/05/21 02:19:18;;;;;;;33.95;8.63;;;23.70;99.90;;;;;;5049637;28;20025;-52
2022/05/21 02:21:44;;;;;;;28.95;9.30;;;23.70;99.90;;;;;;5049654;28;20143;-53
2022/05/21 02:24:10;;;;;;;32.83;8.35;;;23.70;99.90;;;;;;5050623;28;20111;-53
2022/05/21 02:26:38;;;;;;;24.23;7.70;;;23.70;99.90;;;;;;5050774;28;20036;-52
2022/05/21 02:29:04;;;;;;;;;;;23.70;99.90;;;;;;5054102;28;20033;-52
2022/05/21 02:31:30;;;;;;;30.58;8.93;;;23.70;99.90;;;;;;5055007;28;20434;-52
2022/05/21 02:33:55;;;;;;;26.13;8.80;;;23.70;99.90;;;;;;5054546;28;20115;-52
2022/05/21 02:39:25;;;;;;;35.08;8.25;;;23.70;99.90;;;;;;5054673;28;20104;-52
2022/05/21 02:39:25;;;;;;;26.50;8.25;;;23.70;99.90;;;;;;5054528;28;20029;-52
2022/05/21 02:41:51;;;;;;;32.38;7.40;;;23.70;99.90;;;;;;5054491;28;20025;-53
2022/05/21 02:44:17;;;;;;;28.00;7.63;;;23.70;99.90;;;;;;5054339;28;20383;-53
2022/05/21 02:46:42;;;;;;;34.13;7.18;;;23.70;99.90;;;;;;5054300;28;20029;-53
2022/05/21 02:49:08;;;;;;;26.17;9.23;;;23.70;99.90;;;;;;5054437;28;20480;-51
2022/05/21 02:51:34;;;;;;;27.15;8.27;;;23.70;99.90;;;;;;5054281;28;20021;-51
2022/05/21 02:54:00;;;;;;;29.60;8.10;;;23.70;99.90;;;;;;5053208;28;20025;-52
2022/05/21 02:56:25;;;;;;;19.83;6.70;;;23.80;99.90;;;;;;5054292;28;20067;-54
2022/05/21 02:58:51;;;;;;;37.40;8.60;;;23.80;99.90;;;;;;5054179;28;20025;-52
2022/05/21 03:01:17;;;;;;;26.45;8.50;;;23.80;99.90;;;;;;5016526;22;20146;-62
2022/05/21 03:03:42;;;;;;;21.42;8.18;;;23.90;99.90;;;;;;4994632;28;20038;-62
2022/05/21 03:06:08;;;;;;;25.98;7.25;;;23.90;99.90;;;;;;4995059;28;20026;-60
2022/05/21 03:11:18;;;;;;;24.60;7.80;;;23.90;99.90;;;;;;4994655;28;20521;-63
2022/05/21 03:13:44;;;;;;;25.30;7.10;;;23.90;99.90;;;;;;4994655;28;20027;-64
2022/05/21 03:16:11;;;;;;;31.00;8.30;;;23.90;99.90;;;;;;4994653;28;20076;-62
2022/05/21 03:18:37;;;;;;;26.30;8.68;;;23.80;99.90;;;;;;4993338;28;20057;-65
2022/05/21 03:21:03;;;;;;;24.98;7.90;;;23.80;99.90;;;;;;4994710;28;20054;-69
2022/05/21 03:23:28;;;;;;;24.65;7.10;;;23.80;99.90;;;;;;4994467;28;20081;-67
2022/05/21 03:25:54;;;;;;;29.13;8.32;;;23.80;99.90;;;;;;4994437;28;20032;-62
2022/05/21 03:28:21;;;;;;;31.08;8.65;;;23.80;99.90;;;;;;4994300;28;20026;-67
2022/05/21 03:30:47;;;;;;;24.48;7.70;;;23.80;99.90;;;;;;4994371;28;20470;-63
2022/05/21 03:33:13;;;;;;;19.55;7.15;;;23.80;99.90;;;;;;4994176;28;20065;-62
2022/05/21 03:35:41;;;;;;;28.45;7.75;;;23.90;99.90;;;;;;4994144;28;20105;-63
2022/05/21 03:38:11;;;;;;;23.95;7.53;;;23.80;99.90;;;;;;4994155;28;20053;-61
2022/05/21 03:40:38;;;;;;;30.45;7.95;;;23.90;99.90;;;;;;4993099;28;20038;-64
2022/05/21 03:43:03;;;;;;;21.50;7.82;;;23.90;99.90;;;;;;4992927;28;20478;-65
2022/05/21 03:45:30;;;;;;;29.95;8.15;;;23.90;99.90;;;;;;4993901;28;20045;-62
2022/05/21 03:47:56;;;;;;;27.58;7.68;;;24.00;99.90;;;;;;4994109;28;20390;-67
2022/05/21 03:50:24;;;;;;;25.30;6.88;;;23.90;99.90;;;;;;4993951;28;20026;-63
2022/05/21 03:52:50;;;;;;;27.98;7.70;;;23.90;99.90;;;;;;4993937;28;20041;-63
2022/05/21 03:55:16;;;;;;;23.85;7.13;;;23.90;99.90;;;;;;4993899;28;20471;-61
2022/05/21 03:57:42;;;;;;;23.50;7.18;;;23.90;99.90;;;;;;4993663;28;20029;-61
2022/05/21 04:00:12;;;;;;;28.60;9.18;;;23.90;99.90;;;;;;5013027;23;20132;-53
2022/05/21 04:02:38;;;;;;;27.42;7.65;;;23.90;99.90;;;;;;5013750;28;20041;-53
2022/05/21 04:05:06;;;;;;;22.35;7.05;;;23.90;99.90;;;;;;5013504;28;20033;-53
2022/05/21 04:07:32;;;;;;;27.33;7.35;;;24.00;99.90;;;;;;5013551;28;20374;-53
2022/05/21 04:09:58;;;;;;;31.40;7.65;;;24.00;99.90;;;;;;5013211;28;20033;-53
2022/05/21 04:12:24;;;;;;;20.48;8.10;;;24.00;99.90;;;;;;5013099;28;20390;-52
2022/05/21 04:14:50;;;;;;;24.65;7.88;;;24.00;99.90;;;;;;5013216;28;20084;-53
2022/05/21 04:17:16;;;;;;;40.00;7.82;;;23.90;99.90;;;;;;5013363;28;20018;-52
2022/05/21 04:19:42;;;;;;;21.25;7.07;;;23.90;99.90;;;;;;5012927;28;20026;-52
2022/05/21 04:22:09;;;;;;;23.63;7.30;;;23.80;99.90;;;;;;5012788;28;20493;-53
2022/05/21 04:24:36;;;;;;;26.38;7.60;;;23.80;99.90;;;;;;5012977;28;20042;-53
2022/05/21 04:27:02;;;;;;;24.17;7.38;;;23.80;99.90;;;;;;5012767;28;20026;-54
2022/05/21 04:29:28;;;;;;;36.10;10.63;;;23.70;99.90;;;;;;5012866;28;20493;-53
2022/05/21 04:31:54;;;;;;;34.97;11.13;;;23.60;99.90;;;;;;5011478;28;20601;-52
2022/05/21 04:34:19;;;;;;;39.80;9.65;;;23.60;99.90;;;;;;5012599;28;20108;-53
2022/05/21 04:36:45;;;;;;;43.95;10.35;;;23.50;99.90;;;;;;5011466;28;20026;-53
2022/05/21 04:39:11;;;;;;;32.63;9.20;;;23.50;99.90;;;;;;5012693;28;20034;-52
2022/05/21 04:41:37;;;;;;;41.88;11.25;;;23.40;99.90;;;;;;5012865;28;20026;-52
2022/05/21 04:44:03;;;;;;;35.42;10.30;;;23.40;99.90;;;;;;5012643;28;20041;-53
2022/05/21 04:46:31;;;;;;;37.50;10.70;;;23.30;99.90;;;;;;5012551;28;20486;-52
2022/05/21 04:48:56;;;;;;;33.78;9.40;;;23.30;99.90;;;;;;5012511;28;20034;-52
2022/05/21 04:51:22;;;;;;;36.08;9.75;;;23.30;99.90;;;;;;5012285;28;20185;-53
2022/05/21 04:53:48;;;;;;;33.83;10.05;;;23.30;99.90;;;;;;5012459;28;20053;-53
2022/05/21 04:56:14;;;;;;;34.35;10.05;;;23.40;99.90;;;;;;5012650;28;20030;-53
2022/05/21 04:58:40;;;;;;;35.65;10.30;;;23.30;99.90;;;;;;5012410;28;20426;-53
2022/05/21 05:01:06;;;;;;;38.28;11.13;;;23.40;99.90;;;;;;5012364;28;20045;-54
2022/05/21 05:03:32;;;;;;;36.65;10.48;;;23.30;99.90;;;;;;5012256;28;20034;-53
2022/05/21 05:05:58;;;;;;;29.38;9.20;;;23.30;99.90;;;;;;5012170;28;20041;-53
2022/05/21 05:08:24;;;;;;;75.20;16.13;;;23.30;99.90;;;;;;5012095;28;20067;-53
2022/05/21 05:10:51;;;;;;;38.67;10.48;;;23.30;99.90;;;;;;5012096;28;20057;-53
2022/05/21 05:13:17;;;;;;;46.17;11.30;;;23.30;99.90;;;;;;5012095;28;20022;-53
2022/05/21 05:15:44;;;;;;;39.55;11.48;;;23.30;99.90;;;;;;5011972;28;20112;-53
2022/05/21 05:18:16;;;;;;;44.38;11.13;;;23.30;99.90;;;;;;5012126;28;20548;-53
2022/05/21 05:20:42;;;;;;;34.42;10.20;;;23.30;99.90;;;;;;5011970;28;20386;-54
2022/05/21 05:23:09;;;;;;;36.72;11.93;;;23.30;99.90;;;;;;5011901;28;20026;-53
2022/05/21 05:25:36;;;;;;;39.80;10.35;;;23.30;99.90;;;;;;5011948;28;20022;-55
2022/05/21 05:28:03;;;;;;;39.93;11.40;;;23.20;99.90;;;;;;5011808;28;20059;-53
2022/05/21 05:30:29;;;;;;;35.63;10.35;;;23.20;99.90;;;;;;5011785;28;20414;-51
2022/05/21 05:32:55;;;;;;;38.90;10.63;;;23.20;99.90;;;;;;5011793;28;20026;-51
2022/05/21 05:35:21;;;;;;;25.38;9.40;;;23.30;99.90;;;;;;5011633;28;20084;-51
2022/05/21 05:37:47;;;;;;;36.13;10.35;;;23.20;99.90;;;;;;5011674;28;20021;-52
2022/05/21 05:40:18;;;;;;;47.17;11.45;;;23.20;99.90;;;;;;5011752;28;20025;-52
2022/05/21 05:42:44;;;;;;;35.40;10.70;;;23.30;99.90;;;;;;5011478;28;20018;-52
2022/05/21 05:45:13;;;;;;;35.08;10.02;;;23.30;99.90;;;;;;5011692;28;20033;-52
2022/05/21 05:47:38;;;;;;;43.65;11.63;;;23.20;99.90;;;;;;5011757;28;20483;-53
2022/05/21 05:50:05;;;;;;;27.55;9.82;;;23.20;99.90;;;;;;5011427;28;20101;-52
2022/05/21 05:52:31;;;;;;;31.03;11.63;;;23.20;99.90;;;;;;5010229;28;20018;-54
2022/05/21 05:54:57;;;;;;;32.35;10.35;;;23.30;99.90;;;;;;5011457;28;20366;-53
2022/05/21 05:57:23;;;;;;;32.45;9.80;;;23.30;99.90;;;;;;5011453;28;20099;-53
2022/05/21 05:59:49;;;;;;;38.38;10.45;;;23.30;99.90;;;;;;5011186;28;20046;-52
2022/05/21 06:05:14;;;;;;;28.55;9.85;;;23.30;99.90;;;;;;5015910;28;20512;-52
2022/05/21 06:07:42;;;;;;;33.83;10.52;;;23.40;99.90;;;;;;5015493;28;20065;-52
2022/05/21 06:10:09;;;;;;;27.55;9.45;;;23.30;99.90;;;;;;5015372;28;20084;-52
2022/05/21 06:12:35;;;;;;;31.38;11.57;;;23.30;99.90;;;;;;5015392;28;20030;-52
2022/05/21 06:15:00;;;;;;;32.80;10.30;;;23.30;99.90;;;;;;5015306;28;20026;-52
2022/05/21 06:17:26;;;;;;;32.00;9.45;;;23.30;99.90;;;;;;5015234;28;20026;-53
2022/05/21 06:19:53;;;;;;;37.58;9.10;;;23.30;99.90;;;;;;5015338;28;20022;-52
2022/05/21 06:22:18;;;;;;;34.28;9.40;;;23.30;99.90;;;;;;5015230;28;20022;-53
2022/05/21 06:24:44;;;;;;;35.22;9.65;;;23.30;99.90;;;;;;5015095;28;20033;-53
2022/05/21 06:27:11;;;;;;;24.55;8.60;;;23.40;99.90;;;;;;5015238;28;20022;-53
2022/05/21 06:29:37;;;;;;;31.58;8.95;;;23.40;99.90;;;;;;5014991;28;20026;-53
2022/05/21 06:32:07;;;;;;;37.05;10.80;;;23.40;99.90;;;;;;5014893;28;20381;-53
2022/05/21 06:34:35;;;;;;;29.17;8.93;;;23.40;99.90;;;;;;5014763;28;20037;-53
2022/05/21 06:37:07;;;;;;;37.47;10.68;;;23.40;99.90;;;;;;5014911;28;20025;-50
2022/05/21 06:39:34;;;;;;;31.35;9.15;;;23.40;99.90;;;;;;5014769;28;20026;-50
2022/05/21 06:42:00;;;;;;;41.03;14.80;;;23.40;99.90;;;;;;5014797;28;20076;-51
2022/05/21 06:44:26;;;;;;;32.10;10.05;;;23.40;99.90;;;;;;5014789;28;20045;-50
2022/05/21 06:46:53;;;;;;;31.65;9.75;;;23.50;99.90;;;;;;5014673;28;20026;-52
2022/05/21 06:49:19;;;;;;;35.20;11.25;;;23.50;99.90;;;;;;5014639;28;20363;-52
2022/05/21 06:51:45;;;;;;;28.85;9.55;;;23.50;99.90;;;;;;5014650;28;20022;-52
2022/05/21 06:54:11;;;;;;;35.08;10.70;;;23.50;99.90;;;;;;5014735;28;20593;-52
2022/05/21 06:56:40;;;;;;;44.85;19.83;;;23.60;99.90;;;;;;5014511;28;20036;-52
2022/05/21 06:59:06;;;;;;;33.88;10.52;;;23.60;99.90;;;;;;5014472;28;20407;-52
2022/05/21 07:01:32;;;;;;;23.90;8.77;;;23.70;99.90;;;;;;5014311;28;20184;-53
2022/05/21 07:03:58;;;;;;;36.92;14.95;;;23.70;99.90;;;;;;5014256;28;20037;-53
2022/05/21 07:09:09;;;;;;;34.53;10.27;;;23.80;99.90;;;;;;5014729;28;20037;-54
2022/05/21 07:11:34;;;;;;;37.83;9.48;;;23.90;99.90;;;;;;5013068;28;20026;-52
2022/05/21 07:14:00;;;;;;;38.47;10.73;;;23.90;99.90;;;;;;5014332;28;20041;-54
2022/05/21 07:16:26;;;;;;;39.30;11.05;;;23.90;99.90;;;;;;5014171;28;20101;-54
2022/05/21 07:18:52;;;;;;;42.05;11.50;;;23.90;99.90;;;;;;5014235;28;20026;-53
2022/05/21 07:21:19;;;;;;;38.20;10.98;;;24.00;99.90;;;;;;5013974;28;20095;-53
2022/05/21 07:23:46;;;;;;;37.00;10.65;;;24.00;99.90;;;;;;5014235;28;20030;-53
2022/05/21 07:26:13;;;;;;;42.25;10.93;;;24.00;99.90;;;;;;5014176;28;20018;-52
2022/05/21 07:28:39;;;;;;;34.40;10.10;;;24.00;99.90;;;;;;5012641;28;20474;-53
2022/05/21 07:31:05;;;;;;;43.47;11.00;;;24.10;99.90;;;;;;5013899;28;20026;-53
2022/05/21 07:33:31;;;;;;;42.97;11.00;;;24.10;99.90;;;;;;5013820;28;20479;-53
2022/05/21 07:35:57;;;;;;;37.92;10.57;;;24.20;99.90;;;;;;5013729;28;20040;-53
2022/05/21 07:38:23;;;;;;;33.70;10.40;;;24.20;99.90;;;;;;5013794;28;20022;-54
2022/05/21 07:40:50;;;;;;;34.22;10.95;;;24.20;99.90;;;;;;5013659;28;20021;-53
2022/05/21 07:43:19;;;;;;;48.83;20.88;;;24.30;99.90;;;;;;5013846;28;20065;-53
2022/05/21 07:45:46;;;;;;;36.92;9.93;;;24.30;99.90;;;;;;5013806;28;20034;-53
2022/05/21 07:48:14;;;;;;;32.03;10.88;;;24.30;99.90;;;;;;5013706;28;20056;-53
2022/05/21 07:50:42;;;;;;;37.28;11.85;;;24.30;99.90;;;;;;5013444;28;20046;-52
2022/05/21 07:53:20;;;;;;;39.35;10.93;;;24.30;99.90;;;;;;5013425;28;20034;-53
2022/05/21 07:55:48;;;;;;;43.92;14.07;;;24.30;99.90;;;;;;5013630;28;20048;-52
2022/05/21 07:58:15;;;;;;;31.77;11.02;;;24.30;99.90;;;;;;5013651;28;20419;-53
2022/05/21 08:00:42;;;;;;;39.80;17.55;;;24.40;99.90;;;;;;5013239;28;20160;-53
2022/05/21 08:03:10;;;;;;;34.40;11.80;;;24.50;99.90;;;;;;5013219;28;20072;-52
2022/05/21 08:05:38;;;;;;;35.88;10.68;;;24.50;99.90;;;;;;5013199;28;20109;-53
2022/05/21 08:08:05;;;;;;;42.72;10.90;;;24.60;99.90;;;;;;5013117;28;20030;-52
2022/05/21 08:10:31;;;;;;;37.40;13.75;;;24.70;99.90;;;;;;5013094;28;20034;-53
2022/05/21 08:12:57;;;;;;;33.13;14.02;;;24.70;99.90;;;;;;5013192;28;20374;-52
2022/05/21 08:15:24;;;;;;;41.53;13.73;;;24.70;99.90;;;;;;5011839;28;20025;-52
2022/05/21 08:17:50;;;;;;;35.28;12.35;;;24.80;99.90;;;;;;5011923;28;20029;-52
2022/05/21 08:20:16;;;;;;;42.47;13.55;;;24.80;99.90;;;;;;5013131;28;20559;-53
2022/05/21 08:28:13;;;;;;;30.83;10.48;;;24.90;99.90;;;;;;5013095;28;20033;-53
2022/05/21 08:30:40;;;;;;;37.57;10.83;;;24.90;99.90;;;;;;5012771;28;20025;-53
2022/05/21 08:33:07;;;;;;;29.13;9.75;;;25.00;99.90;;;;;;5012713;28;20026;-53
2022/05/21 08:35:35;;;;;;;46.60;10.63;;;25.00;99.90;;;;;;5012602;28;20061;-53
2022/05/21 08:38:01;;;;;;;33.72;10.50;;;25.00;99.90;;;;;;5012548;28;20056;-54
2022/05/21 08:40:50;;;;;;;34.05;9.98;;;25.00;99.90;;;;;;5012565;28;20033;-53
2022/05/21 08:43:39;;;;;;;32.67;10.10;;;25.10;99.90;;;;;;5012519;28;20026;-54
2022/05/21 08:46:27;;;;;;;34.13;11.13;;;25.10;99.90;;;;;;5012379;28;20036;-54
2022/05/21 08:49:01;;;;;;;39.47;11.18;;;25.10;99.90;;;;;;5012472;28;20021;-53
2022/05/21 08:51:32;;;;;;;32.05;9.48;;;25.20;99.90;;;;;;5012386;28;20030;-52
2022/05/21 08:54:03;;;;;;;25.50;10.02;;;25.20;99.90;;;;;;5012429;28;20072;-53
2022/05/21 08:56:30;;;;;;;32.53;9.18;;;25.20;99.90;;;;;;5012526;28;20564;-53
2022/05/21 08:59:03;;;;;;;30.60;9.80;;;25.20;99.90;;;;;;5012322;28;20033;-52
2022/05/21 09:01:32;;;;;;;30.92;10.55;;;25.20;99.90;;;;;;5012121;28;20048;-53
2022/05/21 09:03:58;;;;;;;33.45;9.95;;;25.20;99.90;;;;;;5012054;28;20038;-54
2022/05/21 09:06:53;;;;;;;31.98;9.10;;;25.30;99.90;;;;;;5012238;28;20042;-52
2022/05/21 09:09:37;;;;;;;34.35;10.77;;;25.30;99.90;;;;;;4995615;28;20394;-53
2022/05/21 09:12:29;;;;;;;36.92;10.40;;;25.40;99.90;;;;;;5012795;28;20037;-52
2022/05/21 09:14:57;;;;;;;30.52;9.82;;;25.40;99.90;;;;;;5011919;28;20022;-53
2022/05/21 09:17:25;;;;;;;28.13;9.63;;;25.50;99.90;;;;;;5012211;28;20026;-52
2022/05/21 09:20:13;;;;;;;25.60;8.05;;;25.60;99.90;;;;;;5012189;28;20501;-53
2022/05/21 09:22:39;;;;;;;24.60;9.20;;;25.70;99.90;;;;;;5010008;28;20061;-52
2022/05/21 09:25:22;;;;;;;35.05;9.70;;;25.70;99.90;;;;;;5011745;28;20112;-53
2022/05/21 09:28:00;;;;;;;30.42;9.32;;;25.80;99.90;;;;;;5012056;28;20026;-54
2022/05/21 09:30:36;;;;;;;29.67;9.85;;;25.80;99.90;;;;;;5011813;28;20111;-54
2022/05/21 09:33:26;;;;;;;32.42;9.57;;;25.80;99.90;;;;;;5011671;28;20030;-54
2022/05/21 09:35:55;;;;;;;35.08;9.43;;;25.80;99.90;;;;;;5000621;28;20084;-53
2022/05/21 09:38:26;;;;;;;32.95;9.35;;;25.90;99.90;;;;;;5011101;28;20105;-52
2022/05/21 09:41:11;;;;;;;31.73;9.80;;;25.90;99.90;;;;;;5011879;28;20033;-53
2022/05/21 09:46:31;;;;;;;30.60;8.85;;;25.90;99.90;;;;;;5012057;28;20041;-53
2022/05/21 09:49:12;;;;;;;30.65;12.38;;;25.90;99.90;;;;;;5011614;28;20062;-53
2022/05/21 09:51:40;;;;;;;38.50;14.85;;;25.80;99.90;;;;;;5011604;28;20018;-53
2022/05/21 09:54:25;;;;;;;26.02;9.98;;;25.70;99.90;;;;;;5011377;28;20033;-53
2022/05/21 09:56:53;;;;;;;39.80;14.98;;;25.70;99.90;;;;;;5010408;28;20026;-53
2022/05/21 09:59:26;;;;;;;35.70;11.48;;;25.70;99.90;;;;;;5011111;28;20034;-54
2022/05/21 10:01:56;;;;;;;28.65;9.85;;;25.60;99.90;;;;;;5011548;28;20108;-54
2022/05/21 10:04:46;;;;;;;27.58;8.88;;;25.60;99.90;;;;;;5011719;28;20077;-54
2022/05/21 10:13:16;;;;;;;28.75;9.25;;;25.40;99.90;;;;;;5011254;28;20262;-54
2022/05/21 10:15:48;;;;;;;29.77;9.50;;;25.40;99.90;;;;;;5011337;28;20018;-54
2022/05/21 10:18:34;;;;;;;33.50;9.40;;;25.40;99.90;;;;;;5011242;28;20040;-54
2022/05/21 10:21:12;;;;;;;31.27;10.15;;;25.50;99.90;;;;;;5011273;28;20041;-54
2022/05/21 10:23:48;;;;;;;25.92;9.75;;;25.60;99.90;;;;;;5011162;28;20041;-53
2022/05/21 10:26:52;;;;;;;24.00;8.03;;;25.60;99.90;;;;;;5011175;28;20389;-54
2022/05/21 10:29:29;;;;;;;33.15;15.63;;;25.70;99.90;;;;;;4931453;29;20034;-54
2022/05/21 10:32:09;;;;;;;42.50;19.73;;;25.80;99.90;;;;;;5001399;28;20061;-54
2022/05/21 10:34:48;;;;;;;30.45;11.40;;;25.80;99.90;;;;;;5011024;28;20030;-54
2022/05/21 10:37:35;;;;;;;36.03;10.80;;;25.80;99.90;;;;;;5011112;28;20029;-54
2022/05/21 10:40:35;;;;;;;28.90;10.65;;;25.90;99.90;;;;;;5010982;28;20028;-54
2022/05/21 10:43:22;;;;;;;29.98;10.18;;;25.90;99.90;;;;;;5010967;28;20022;-54
2022/05/21 10:46:20;;;;;;;32.72;10.63;;;25.90;99.90;;;;;;5010970;28;20030;-54
2022/05/21 10:48:55;;;;;;;26.33;8.73;;;26.00;99.90;;;;;;5011657;28;20093;-54
2022/05/21 10:51:54;;;;;;;27.63;8.13;;;26.00;99.90;;;;;;5014812;28;20030;-54
2022/05/21 10:54:38;;;;;;;34.72;13.25;;;26.10;99.90;;;;;;5014592;28;20559;-54
2022/05/21 10:57:41;;;;;;;29.70;12.27;;;26.10;99.90;;;;;;5014600;28;20025;-55
2022/05/21 11:00:13;;;;;;;34.55;10.15;;;26.10;99.90;;;;;;5014328;28;20152;-54
2022/05/21 11:03:02;;;;;;;25.63;8.98;;;26.00;99.90;;;;;;5014409;28;20022;-54
2022/05/21 11:05:45;;;;;;;26.63;7.85;;;26.00;99.90;;;;;;5014539;28;20038;-55
2022/05/21 11:08:21;;;;;;;24.40;8.45;;;25.90;99.90;;;;;;5014413;28;20029;-54
2022/05/21 11:11:01;;;;;;;25.30;8.20;;;25.90;99.90;;;;;;5014544;28;20053;-54
2022/05/21 11:14:04;;;;;;;33.75;10.45;;;25.90;99.90;;;;;;5007180;28;20021;-54
2022/05/21 11:17:12;;;;;;;29.35;9.85;;;25.80;99.90;;;;;;5003764;28;20034;-54
2022/05/21 11:19:57;;;;;;;24.90;8.70;;;25.80;99.90;;;;;;5004434;28;20072;-54
2022/05/21 11:22:56;;;;;;;23.50;8.02;;;25.80;99.90;;;;;;5007577;28;20077;-53
2022/05/21 11:25:28;;;;;;;28.88;8.48;;;25.80;99.90;;;;;;4988539;28;20069;-52
2022/05/21 11:28:00;;;;;;;25.67;7.82;;;25.80;99.90;;;;;;5012694;28;20026;-52
2022/05/21 11:30:26;;;;;;;27.98;6.68;;;25.80;99.90;;;;;;5014008;28;20537;-52
2022/05/21 11:38:42;;;;;;;26.83;8.70;;;26.10;99.90;;;;;;5014112;28;20102;-54
2022/05/21 11:41:30;;;;;;;30.05;9.13;;;26.20;99.90;;;;;;5009813;28;20334;-53
2022/05/21 11:47:13;;;;;;;30.23;8.35;;;26.40;99.90;;;;;;5013425;28;20028;-54
2022/05/21 11:49:49;;;;;;;25.55;6.85;;;26.40;99.90;;;;;;5011767;28;20041;-53
2022/05/21 11:52:26;;;;;;;20.52;6.82;;;26.40;99.90;;;;;;5013627;28;20364;-52
2022/05/21 11:54:57;;;;;;;20.33;6.93;;;26.30;99.90;;;;;;5012060;28;20091;-52
2022/05/21 11:57:37;;;;;;;23.90;6.88;;;26.30;99.90;;;;;;5012344;28;20025;-52
2022/05/21 12:00:25;;;;;;;28.38;8.52;;;26.30;99.90;;;;;;5012163;28;20050;-52
2022/05/21 12:02:54;;;;;;;27.95;11.23;;;26.30;99.90;;;;;;5013456;28;20097;-49
2022/05/21 12:05:34;;;;;;;31.83;15.23;;;26.40;99.90;;;;;;5013120;28;20130;-48
2022/05/21 12:08:10;;;;;;;28.98;11.00;;;26.40;99.90;;;;;;5013346;28;20032;-49
2022/05/21 12:10:58;;;;;;;41.03;20.38;;;26.40;99.90;;;;;;5013281;28;20477;-49
2022/05/21 12:13:35;;;;;;;25.30;10.65;;;26.40;99.90;;;;;;5012985;28;20038;-49
2022/05/21 12:16:16;;;;;;;32.75;13.95;;;26.50;99.90;;;;;;5013190;28;20119;-49
2022/05/21 12:18:47;;;;;;;32.67;15.85;;;26.40;99.90;;;;;;5012976;28;20495;-49
2022/05/21 12:21:36;;;;;;;28.15;10.00;;;26.40;99.90;;;;;;5012947;28;20022;-50
2022/05/21 12:24:08;;;;;;;29.83;12.88;;;26.40;99.90;;;;;;5010721;28;20046;-48
2022/05/21 12:26:39;;;;;;;39.20;13.10;;;26.30;99.90;;;;;;5012849;28;20105;-50
2022/05/21 12:29:18;;;;;;;32.97;9.88;;;26.30;99.90;;;;;;5010932;28;20038;-48
2022/05/21 12:31:53;;;;;;;29.60;9.05;;;26.40;99.90;;;;;;5011619;28;20044;-48
2022/05/21 12:34:37;;;;;;;22.08;8.52;;;26.40;99.90;;;;;;5012718;28;20037;-49
2022/05/21 12:37:12;;;;;;;26.88;9.65;;;26.50;99.90;;;;;;5012975;28;20026;-50
2022/05/21 12:40:02;;;;;;;29.73;10.48;;;26.40;99.90;;;;;;5010064;28;20033;-47
2022/05/21 12:42:47;;;;;;;25.55;8.95;;;26.50;99.90;;;;;;5005659;28;20033;-49
2022/05/21 12:45:32;;;;;;;26.08;9.32;;;26.50;99.90;;;;;;5008409;28;20525;-49
2022/05/21 12:48:34;;;;;;;29.20;8.82;;;26.50;99.90;;;;;;5009739;28;20133;-50
2022/05/21 12:51:08;;;;;;;24.48;7.32;;;26.60;99.90;;;;;;5009956;28;20104;-50
2022/05/21 12:53:42;;;;;;;29.20;9.98;;;26.60;99.90;;;;;;5009120;28;20382;-51
2022/05/21 12:56:26;;;;;;;31.10;11.13;;;26.60;99.90;;;;;;5010029;28;20334;-51
2022/05/21 12:59:10;;;;;;;24.20;10.38;;;26.70;99.90;;;;;;5009303;28;20033;-52
2022/05/21 13:01:46;;;;;;;26.73;9.65;;;26.70;99.90;;;;;;5009891;28;20065;-51
2022/05/21 13:04:42;;;;;;;28.85;7.57;;;26.60;99.90;;;;;;5009014;28;20026;-52
2022/05/21 13:07:34;;;;;;;27.05;9.40;;;26.60;99.90;;;;;;5001295;28;20064;-52
2022/05/21 13:10:14;;;;;;;22.33;9.00;;;26.50;99.90;;;;;;5006987;28;20034;-51
2022/05/21 13:12:45;;;;;;;22.80;8.65;;;26.60;99.90;;;;;;5009397;28;20034;-51
2022/05/21 13:15:13;;;;;;;25.30;8.02;;;26.50;99.90;;;;;;5010226;28;20395;-51
2022/05/21 13:17:50;;;;;;;18.67;5.97;;;26.60;99.90;;;;;;5008511;28;20074;-52
2022/05/21 13:20:44;;;;;;;19.77;8.07;;;26.60;99.90;;;;;;5009701;28;20068;-52
2022/05/21 13:23:24;;;;;;;24.02;8.68;;;26.60;99.90;;;;;;5009180;28;20513;-51
2022/05/21 13:25:55;;;;;;;23.30;8.43;;;26.60;99.90;;;;;;5007482;28;20022;-51
2022/05/21 13:28:23;;;;;;;24.33;7.35;;;26.60;99.90;;;;;;5006497;28;20030;-53